Time;durP1;ratioP1;P1;durP2;ratioP2;P2;SDS_P1;SDS_P2;PMS_P1;PMS_P2;Temp;Humidity;BMP_temperature;BMP_pressure;BME280_temperature;BME280_humidity;BME280_pressure;Samples;Min_cycle;Max_cycle;Signal;HPM_P1;HPM_P2
2023/11/02 00:00:36;;;;;;;9.55;4.43;;;;;;;16.77;58.73;99508.41;5119239;27;20364;-65
2023/11/02 00:03:06;;;;;;;7.30;4.40;;;;;;;16.73;58.51;99517.06;5120546;27;20053;-65
2023/11/02 00:06:04;;;;;;;9.35;3.78;;;;;;;16.70;59.16;99512.13;5118485;28;20314;-65
2023/11/02 00:08:35;;;;;;;9.32;4.15;;;;;;;16.51;60.80;99516.38;5087867;27;20059;-65
2023/11/02 00:11:05;;;;;;;9.10;3.92;;;;;;;16.42;59.73;99515.78;5120331;28;20027;-64
2023/11/02 00:13:31;;;;;;;10.52;4.60;;;;;;;16.46;58.54;99514.34;5118445;27;20278;-64
2023/11/02 00:15:57;;;;;;;8.38;4.45;;;;;;;16.38;57.70;99503.84;5118658;27;20035;-64
2023/11/02 00:18:25;;;;;;;10.65;4.90;;;;;;;16.44;57.29;99505.69;5119091;27;20072;-65
2023/11/02 00:20:54;;;;;;;8.55;4.88;;;;;;;16.52;56.38;99507.34;5119142;27;20067;-64
2023/11/02 00:23:39;;;;;;;10.43;5.25;;;;;;;16.61;55.87;99500.75;5117853;27;20202;-64
2023/11/02 00:26:05;;;;;;;9.18;5.05;;;;;;;16.53;55.51;99484.94;5117033;27;20082;-64
2023/11/02 00:28:31;;;;;;;10.95;5.53;;;;;;;16.69;55.14;99497.13;5117748;28;20055;-64
2023/11/02 00:30:58;;;;;;;11.25;5.22;;;;;;;16.78;55.44;99493.19;5117993;28;20039;-64
2023/11/02 00:33:24;;;;;;;9.52;5.05;;;;;;;16.79;55.06;99492.97;5114262;28;20143;-65
2023/11/02 00:35:53;;;;;;;9.52;5.45;;;;;;;16.78;55.16;99491.34;5118918;27;20326;-64
2023/11/02 00:38:26;;;;;;;8.98;5.28;;;;;;;16.77;55.16;99481.66;5117390;28;20054;-65
2023/11/02 00:40:52;;;;;;;9.60;5.70;;;;;;;16.83;55.35;99477.34;5117926;28;20337;-65
2023/11/02 00:43:18;;;;;;;8.23;4.90;;;;;;;16.85;54.80;99476.09;5118282;28;20218;-65
2023/11/02 00:45:44;;;;;;;10.80;5.05;;;;;;;16.62;55.24;99489.03;5118819;28;20031;-64
2023/11/02 00:48:31;;;;;;;8.40;4.75;;;;;;;16.38;56.08;99492.34;5117913;28;20040;-64
2023/11/02 00:51:24;;;;;;;11.60;4.90;;;;;;;15.76;58.92;99493.50;5117883;28;20047;-65
2023/11/02 00:54:00;;;;;;;10.43;5.18;;;;;;;15.68;58.96;99488.34;5122291;27;20043;-64
2023/11/02 00:56:33;;;;;;;13.20;5.63;;;;;;;15.72;59.11;99490.41;5121618;27;20059;-64
2023/11/02 00:59:00;;;;;;;8.63;4.55;;;;;;;15.83;59.04;99486.31;5122423;27;20027;-64
2023/11/02 01:01:27;;;;;;;17.00;4.82;;;;;;;15.88;58.74;99481.19;5123354;27;20045;-64
2023/11/02 01:03:54;;;;;;;8.20;4.63;;;;;;;15.99;58.83;99485.13;5120600;27;20450;-65
2023/11/02 01:06:23;;;;;;;16.63;4.93;;;;;;;16.07;58.71;99476.91;5122924;27;20399;-64
2023/11/02 01:08:53;;;;;;;12.55;5.47;;;;;;;16.06;58.68;99486.78;5121801;27;20110;-64
2023/11/02 01:11:22;;;;;;;8.95;4.60;;;;;;;16.03;58.99;99489.03;5117878;27;20031;-64
2023/11/02 01:13:47;;;;;;;12.43;5.38;;;;;;;16.09;58.67;99491.69;5121987;27;20046;-64
2023/11/02 01:16:14;;;;;;;9.93;5.57;;;;;;;16.03;59.37;99486.34;5121584;27;20031;-64
2023/11/02 01:18:45;;;;;;;11.45;5.15;;;;;;;16.07;59.52;99485.75;5121194;27;20035;-64
2023/11/02 01:21:10;;;;;;;8.75;5.13;;;;;;;16.23;59.29;99480.00;5121301;27;20119;-64
2023/11/02 01:23:36;;;;;;;9.88;5.32;;;;;;;16.29;58.98;99487.19;5120930;27;20392;-64
2023/11/02 01:26:05;;;;;;;9.50;5.53;;;;;;;16.36;58.63;99478.34;5120942;27;20430;-65
2023/11/02 01:28:51;;;;;;;8.32;4.65;;;;;;;16.31;58.65;99481.66;5120882;27;20365;-64
2023/11/02 01:31:18;;;;;;;8.40;5.07;;;;;;;16.30;58.59;99477.34;5122134;27;20035;-64
2023/11/02 01:33:55;;;;;;;26.23;5.80;;;;;;;16.29;59.27;99475.69;5122482;27;20115;-64
2023/11/02 01:36:33;;;;;;;12.68;5.97;;;;;;;16.34;59.61;99488.44;5122817;27;20089;-65
2023/11/02 01:39:01;;;;;;;31.58;12.90;;;;;;;16.29;59.40;99487.19;5119426;27;20043;-64
2023/11/02 01:41:37;;;;;;;18.38;9.57;;;;;;;16.12;60.07;99477.94;5122070;27;20032;-65
2023/11/02 01:44:17;;;;;;;13.60;6.75;;;;;;;16.13;59.14;99473.41;5121849;27;20349;-65
2023/11/02 01:47:20;;;;;;;11.48;6.78;;;;;;;16.18;59.07;99473.63;5121131;27;20032;-65
2023/11/02 01:49:48;;;;;;;13.35;8.48;;;;;;;16.27;58.83;99467.88;5107270;27;20040;-64
2023/11/02 01:52:20;;;;;;;12.48;7.88;;;;;;;16.09;58.93;99461.50;5122508;27;20055;-64
2023/11/02 01:55:19;;;;;;;12.80;6.57;;;;;;;15.96;58.61;99455.13;5121700;27;20039;-64
2023/11/02 01:58:15;;;;;;;10.75;6.75;;;;;;;16.05;58.25;99458.41;5121746;27;20039;-65
2023/11/02 02:01:07;;;;;;;12.70;6.57;;;;;;;16.22;58.02;99465.00;5121417;27;20035;-64
2023/11/02 02:03:51;;;;;;;12.70;6.28;;;;;;;16.18;57.90;99461.09;5116942;27;20039;-65
2023/11/02 02:06:35;;;;;;;12.15;6.57;;;;;;;16.27;57.36;99459.03;5122736;27;20036;-65
2023/11/02 02:09:39;;;;;;;13.73;7.60;;;;;;;16.27;58.22;99451.84;5114431;27;20360;-65
2023/11/02 02:12:26;;;;;;;9.30;6.97;;;;;;;16.18;58.01;99454.94;5122314;27;20108;-65
2023/11/02 02:15:26;;;;;;;10.77;6.28;;;;;;;16.10;58.65;99453.28;5121534;27;20282;-65
2023/11/02 02:18:00;;;;;;;9.98;6.28;;;;;;;16.07;59.07;99445.69;5118537;27;20028;-64
2023/11/02 02:20:31;;;;;;;13.45;6.43;;;;;;;16.13;58.59;99438.69;5120282;27;20035;-65
2023/11/02 02:23:13;;;;;;;8.52;5.93;;;;;;;16.15;57.65;99433.97;5112260;27;20395;-64
2023/11/02 02:25:53;;;;;;;7.95;5.60;;;;;;;16.20;57.56;99435.00;5120342;27;20120;-64
2023/11/02 02:28:43;;;;;;;14.07;6.20;;;;;;;16.23;57.98;99431.09;5120188;27;20302;-64
2023/11/02 02:31:27;;;;;;;9.57;5.78;;;;;;;16.28;57.46;99428.63;5120117;27;20063;-65
2023/11/02 02:34:04;;;;;;;12.38;6.30;;;;;;;16.18;57.57;99422.88;5121219;27;20028;-65
2023/11/02 02:36:44;;;;;;;10.52;6.40;;;;;;;16.16;57.90;99422.25;5087578;27;20124;-64
2023/11/02 02:39:15;;;;;;;10.35;5.55;;;;;;;16.28;57.33;99431.31;5119415;27;20392;-64
2023/11/02 02:41:43;;;;;;;9.65;5.20;;;;;;;16.31;57.27;99425.53;5119344;27;20036;-64
2023/11/02 02:44:10;;;;;;;16.15;5.47;;;;;;;16.22;57.50;99414.25;5119230;27;20111;-64
2023/11/02 02:46:39;;;;;;;8.30;4.45;;;;;;;16.23;57.18;99409.72;5119320;27;20027;-65
2023/11/02 02:49:05;;;;;;;7.18;4.28;;;;;;;16.29;56.59;99416.91;5119198;27;20291;-65
2023/11/02 02:51:33;;;;;;;6.95;4.13;;;;;;;16.24;56.65;99408.69;5119405;27;20044;-65
2023/11/02 02:54:06;;;;;;;7.30;4.43;;;;;;;16.23;56.49;99396.38;5119148;27;20111;-64
2023/11/02 02:56:33;;;;;;;10.80;5.80;;;;;;;16.07;57.05;99397.59;5119593;27;20038;-64
2023/11/02 02:59:06;;;;;;;9.32;4.15;;;;;;;15.92;58.05;99387.13;5121323;27;20102;-64
2023/11/02 03:01:43;;;;;;;6.47;4.60;;;;;;;16.03;57.60;99390.22;5101553;28;20035;-64
2023/11/02 03:04:14;;;;;;;9.73;4.82;;;;;;;16.08;57.50;99395.75;5121314;27;20071;-64
2023/11/02 03:06:44;;;;;;;8.23;4.40;;;;;;;15.97;57.44;99397.19;5117971;27;20104;-65
2023/11/02 03:09:20;;;;;;;6.90;4.38;;;;;;;15.91;58.11;99395.34;5119494;27;20359;-64
2023/11/02 03:11:50;;;;;;;8.40;4.22;;;;;;;15.96;57.33;99385.69;5119596;27;20043;-63
2023/11/02 03:14:16;;;;;;;8.18;4.03;;;;;;;15.92;57.33;99387.13;5119252;27;20399;-63
2023/11/02 03:16:43;;;;;;;6.72;4.07;;;;;;;15.82;57.85;99377.88;5119151;27;20313;-62
2023/11/02 03:19:23;;;;;;;8.43;4.30;;;;;;;15.79;58.42;99373.78;5119914;27;20099;-63
2023/11/02 03:21:49;;;;;;;8.50;4.40;;;;;;;15.68;58.79;99371.72;5118336;27;20320;-63
2023/11/02 03:24:26;;;;;;;8.32;4.20;;;;;;;15.80;58.24;99371.94;5119414;27;20062;-63
2023/11/02 03:26:59;;;;;;;4.53;3.85;;;;;;;15.78;58.26;99360.63;5110240;27;20356;-63
2023/11/02 03:29:33;;;;;;;7.32;4.53;;;;;;;15.62;59.06;99361.84;5119366;27;20088;-63
2023/11/02 03:32:14;;;;;;;8.70;3.90;;;;;;;15.75;59.15;99369.88;5119747;27;20099;-66
2023/11/02 03:35:18;;;;;;;7.55;4.50;;;;;;;15.73;59.52;99363.91;5118468;27;20420;-63
2023/11/02 03:38:01;;;;;;;7.72;4.30;;;;;;;15.73;60.04;99357.75;5079970;27;20048;-63
2023/11/02 03:40:47;;;;;;;7.88;4.78;;;;;;;15.62;60.59;99353.84;5119631;27;20043;-64
2023/11/02 03:43:21;;;;;;;8.73;4.70;;;;;;;15.73;60.23;99363.91;5117873;27;20047;-64
2023/11/02 03:46:16;;;;;;;10.23;5.20;;;;;;;15.79;60.27;99367.63;5120345;27;20241;-64
2023/11/02 03:49:20;;;;;;;8.15;4.55;;;;;;;15.71;60.14;99373.16;5114700;27;20137;-64
2023/11/02 03:52:12;;;;;;;15.07;4.50;;;;;;;15.67;60.65;99372.75;5054844;28;20090;-64
2023/11/02 03:55:08;;;;;;;13.60;5.13;;;;;;;15.63;61.42;99371.50;5056189;28;20053;-63
2023/11/02 03:58:12;;;;;;;7.97;5.00;;;;;;;15.57;62.16;99365.09;5101477;27;20047;-64
2023/11/02 04:00:49;;;;;;;10.30;5.75;;;;;;;15.53;62.46;99361.16;5088516;27;20082;-64
2023/11/02 04:03:19;;;;;;;7.97;4.93;;;;;;;15.52;62.62;99356.84;5118983;27;20051;-64
2023/11/02 04:05:47;;;;;;;11.27;5.55;;;;;;;15.50;62.62;99360.75;5119482;27;20043;-64
2023/11/02 04:08:20;;;;;;;9.63;5.10;;;;;;;15.46;62.82;99351.50;5118854;27;20063;-64
2023/11/02 04:10:48;;;;;;;7.57;5.43;;;;;;;15.45;62.95;99353.34;5120337;27;20040;-63
2023/11/02 04:13:33;;;;;;;9.93;5.40;;;;;;;15.43;63.30;99351.91;5119066;27;20555;-64
2023/11/02 04:15:58;;;;;;;8.98;5.22;;;;;;;15.39;63.27;99353.34;5118924;27;20144;-64
2023/11/02 04:18:24;;;;;;;11.55;5.65;;;;;;;15.36;63.86;99359.91;5118241;27;20031;-64
2023/11/02 04:20:51;;;;;;;8.43;5.22;;;;;;;15.27;64.09;99351.28;5119499;27;20114;-64
2023/11/02 04:23:21;;;;;;;10.93;6.13;;;;;;;15.23;64.26;99354.53;5118614;27;20157;-64
2023/11/02 04:25:47;;;;;;;9.88;5.50;;;;;;;15.26;64.58;99351.47;5118304;27;20070;-64
2023/11/02 04:28:13;;;;;;;11.18;6.90;;;;;;;15.22;64.49;99348.38;5119883;27;20333;-64
2023/11/02 04:30:38;;;;;;;13.00;5.88;;;;;;;15.20;64.90;99345.09;5118740;27;20065;-64
2023/11/02 04:33:04;;;;;;;9.23;6.03;;;;;;;15.20;64.83;99350.44;5119166;28;20028;-64
2023/11/02 04:35:29;;;;;;;11.18;6.38;;;;;;;15.15;64.58;99347.53;5118054;27;20035;-64
2023/11/02 04:38:09;;;;;;;12.80;6.38;;;;;;;15.05;65.47;99355.09;5119802;28;20039;-64
2023/11/02 04:40:35;;;;;;;12.02;6.40;;;;;;;15.04;65.56;99352.66;5111016;28;20207;-64
2023/11/02 04:43:02;;;;;;;11.48;6.30;;;;;;;15.03;65.63;99351.81;5118292;28;20031;-64
2023/11/02 04:45:28;;;;;;;12.13;7.13;;;;;;;14.84;65.98;99331.25;5119712;28;20092;-64
2023/11/02 04:47:54;;;;;;;16.70;6.97;;;;;;;14.86;66.63;99353.19;5118467;28;20234;-64
2023/11/02 04:50:20;;;;;;;13.27;6.43;;;;;;;14.71;67.07;99357.84;5118686;28;20039;-64
2023/11/02 04:52:46;;;;;;;16.05;6.53;;;;;;;14.67;67.15;99352.09;5119149;28;20038;-64
2023/11/02 04:55:12;;;;;;;14.80;6.72;;;;;;;14.65;67.47;99354.13;5119128;28;20058;-64
2023/11/02 04:57:37;;;;;;;9.80;6.20;;;;;;;14.65;67.51;99362.94;5117964;28;20383;-64
2023/11/02 05:00:04;;;;;;;17.08;6.32;;;;;;;14.64;67.86;99366.63;5119004;28;20390;-64
2023/11/02 05:02:30;;;;;;;12.00;5.63;;;;;;;14.71;66.94;99371.16;5117734;28;20047;-64
2023/11/02 05:04:56;;;;;;;10.40;6.03;;;;;;;14.75;66.56;99359.91;5118136;28;20032;-64
2023/11/02 05:07:22;;;;;;;13.00;5.88;;;;;;;14.81;66.15;99361.78;5117910;28;20112;-64
2023/11/02 05:09:47;;;;;;;12.98;6.38;;;;;;;14.84;66.01;99368.56;5119098;28;20036;-64
2023/11/02 05:12:13;;;;;;;16.80;6.90;;;;;;;14.82;66.28;99373.28;5117858;28;20034;-64
2023/11/02 05:14:38;;;;;;;12.05;6.63;;;;;;;14.85;66.26;99372.88;5118101;28;20042;-64
2023/11/02 05:17:04;;;;;;;13.93;6.93;;;;;;;14.86;66.30;99374.53;5117819;28;20051;-64
2023/11/02 05:19:29;;;;;;;14.25;6.72;;;;;;;14.92;65.86;99376.38;5117683;28;20066;-64
2023/11/02 05:21:55;;;;;;;13.82;6.88;;;;;;;14.85;66.63;99389.69;5118035;28;20209;-64
2023/11/02 05:24:20;;;;;;;16.95;7.63;;;;;;;14.91;66.15;99388.91;5117271;28;20036;-64
2023/11/02 05:26:46;;;;;;;20.08;7.82;;;;;;;14.95;65.97;99395.47;5116738;28;20135;-64
2023/11/02 05:29:11;;;;;;;15.95;6.57;;;;;;;14.99;66.07;99403.91;5117658;28;20080;-64
2023/11/02 05:31:36;;;;;;;12.32;6.13;;;;;;;15.04;65.75;99414.78;5118384;28;20242;-64
2023/11/02 05:34:02;;;;;;;14.38;7.00;;;;;;;15.10;65.75;99413.16;5118007;28;20217;-64
2023/11/02 05:36:28;;;;;;;15.27;6.85;;;;;;;15.11;65.51;99420.16;5116460;28;20036;-64
2023/11/02 05:38:53;;;;;;;17.02;7.50;;;;;;;15.07;65.46;99429.56;5118382;27;20815;-63
2023/11/02 05:41:19;;;;;;;15.23;7.78;;;;;;;14.99;66.12;99430.56;5120336;27;20208;-64
2023/11/02 05:43:44;;;;;;;12.00;6.57;;;;;;;15.05;66.03;99428.94;5120487;27;20762;-63
2023/11/02 05:46:10;;;;;;;13.18;6.90;;;;;;;15.09;65.76;99431.00;5120676;27;20334;-64
2023/11/02 05:48:35;;;;;;;14.02;7.00;;;;;;;15.16;65.85;99429.19;5119646;27;20356;-64
2023/11/02 05:51:01;;;;;;;13.55;6.78;;;;;;;15.25;65.32;99433.34;5119836;27;20029;-64
2023/11/02 05:53:27;;;;;;;15.82;6.90;;;;;;;15.32;65.17;99436.84;5119773;27;20036;-63
2023/11/02 05:55:52;;;;;;;10.00;6.38;;;;;;;15.37;65.05;99432.75;5120473;27;20024;-64
2023/11/02 05:58:18;;;;;;;13.40;5.75;;;;;;;15.45;64.59;99436.06;5119722;27;20412;-64
2023/11/02 06:00:43;;;;;;;11.30;6.07;;;;;;;15.45;64.74;99428.06;5120098;27;20031;-64
2023/11/02 06:03:09;;;;;;;14.18;6.35;;;;;;;15.53;63.99;99424.38;5120273;27;20027;-64
2023/11/02 06:05:34;;;;;;;11.40;6.15;;;;;;;15.63;64.28;99425.72;5120852;27;20337;-64
2023/11/02 06:08:00;;;;;;;15.20;6.53;;;;;;;15.73;63.64;99427.16;5121115;27;20065;-64
2023/11/02 06:10:25;;;;;;;13.32;6.35;;;;;;;15.84;63.50;99438.06;5120737;27;20080;-64
2023/11/02 06:12:51;;;;;;;11.18;6.03;;;;;;;15.95;62.91;99434.78;5121638;27;20087;-64
2023/11/02 06:15:16;;;;;;;12.25;6.68;;;;;;;16.02;62.68;99413.44;5120036;27;20036;-64
2023/11/02 06:17:41;;;;;;;14.07;7.45;;;;;;;16.07;62.37;99418.97;5120670;27;20345;-64
2023/11/02 06:20:07;;;;;;;14.63;7.53;;;;;;;16.07;62.19;99426.16;5120214;27;20072;-64
2023/11/02 06:22:33;;;;;;;13.95;7.10;;;;;;;16.04;62.41;99421.22;5119718;27;20106;-64
2023/11/02 06:24:59;;;;;;;15.30;7.63;;;;;;;16.15;62.35;99421.44;5120486;27;20030;-64
2023/11/02 06:27:25;;;;;;;17.27;8.05;;;;;;;16.23;61.58;99415.88;5127166;27;20055;-64
2023/11/02 06:29:51;;;;;;;15.63;7.70;;;;;;;16.29;62.17;99417.72;5120191;27;20036;-64
2023/11/02 06:32:16;;;;;;;13.05;8.27;;;;;;;16.25;61.72;99413.00;5120861;27;20103;-64
2023/11/02 06:34:41;;;;;;;14.13;7.68;;;;;;;16.31;61.32;99412.19;5120278;27;20054;-64
2023/11/02 06:37:08;;;;;;;13.45;7.10;;;;;;;16.25;62.06;99423.69;5120541;27;20043;-63
2023/11/02 06:39:35;;;;;;;10.45;6.40;;;;;;;16.31;62.00;99427.41;5119796;27;20076;-64
2023/11/02 06:42:00;;;;;;;12.65;7.18;;;;;;;16.32;62.27;99429.03;5120034;27;20035;-64
2023/11/02 06:44:26;;;;;;;12.20;7.38;;;;;;;16.31;62.29;99417.53;5120016;27;20035;-64
2023/11/02 06:46:52;;;;;;;13.95;7.78;;;;;;;16.42;61.95;99416.06;5119836;27;20046;-64
2023/11/02 06:49:17;;;;;;;15.48;7.68;;;;;;;16.44;61.76;99428.19;5119327;27;20066;-64
2023/11/02 06:51:43;;;;;;;14.90;7.75;;;;;;;16.39;62.61;99419.16;5119565;27;20352;-64
2023/11/02 06:54:09;;;;;;;20.35;9.95;;;;;;;16.54;63.12;99436.63;5119520;27;20031;-64
2023/11/02 06:56:34;;;;;;;22.65;11.88;;;;;;;16.57;62.64;99440.72;5119284;27;20370;-63
2023/11/02 06:58:59;;;;;;;20.05;10.80;;;;;;;16.59;62.48;99447.50;5119510;27;20357;-64
2023/11/02 07:01:26;;;;;;;13.52;9.60;;;;;;;16.58;62.63;99447.72;5119560;27;20024;-64
2023/11/02 07:03:51;;;;;;;16.23;10.05;;;;;;;16.58;62.47;99443.19;5119368;27;21012;-64
2023/11/02 07:06:17;;;;;;;16.15;9.15;;;;;;;16.59;62.35;99430.66;5119399;27;20036;-64
2023/11/02 07:08:42;;;;;;;14.30;7.63;;;;;;;16.50;62.93;99426.53;5119354;27;20236;-64
2023/11/02 07:11:08;;;;;;;13.45;7.20;;;;;;;16.60;62.70;99432.28;5119517;27;20258;-64
2023/11/02 07:13:34;;;;;;;13.40;7.60;;;;;;;16.64;62.82;99432.69;5118981;27;20032;-64
2023/11/02 07:16:00;;;;;;;12.48;6.90;;;;;;;16.60;63.28;99425.09;5119308;27;20317;-64
2023/11/02 07:18:25;;;;;;;11.27;6.57;;;;;;;16.66;63.07;99422.69;5118611;27;20114;-64
2023/11/02 07:20:51;;;;;;;10.18;7.03;;;;;;;16.68;63.04;99405.41;5119206;27;20249;-64
2023/11/02 07:23:17;;;;;;;11.93;8.02;;;;;;;16.57;63.78;99396.09;5119646;27;20237;-65
2023/11/02 07:25:42;;;;;;;14.18;7.60;;;;;;;16.52;63.41;99393.25;5119176;27;20038;-64
2023/11/02 07:28:08;;;;;;;14.27;8.65;;;;;;;16.68;63.41;99393.88;5119851;27;20032;-64
2023/11/02 07:30:34;;;;;;;14.35;8.45;;;;;;;16.75;63.84;99379.47;5119174;27;20049;-64
2023/11/02 07:33:00;;;;;;;11.88;7.43;;;;;;;16.82;63.34;99380.25;5119119;27;20031;-64
2023/11/02 07:35:26;;;;;;;12.13;7.00;;;;;;;16.89;62.78;99381.06;5119310;27;20038;-63
2023/11/02 07:37:51;;;;;;;14.48;7.20;;;;;;;17.00;62.78;99381.44;5118685;27;20052;-65
2023/11/02 07:40:20;;;;;;;13.60;8.18;;;;;;;17.16;63.50;99380.94;5119044;27;20048;-62
2023/11/02 07:42:46;;;;;;;12.55;9.48;;;;;;;17.21;62.81;99376.59;5119268;27;20035;-62
2023/11/02 07:45:11;;;;;;;14.40;10.60;;;;;;;17.08;62.79;99370.47;5118764;27;20148;-62
2023/11/02 07:47:36;;;;;;;13.55;8.50;;;;;;;17.21;62.51;99379.25;5118114;27;20035;-64
2023/11/02 07:50:03;;;;;;;16.08;13.27;;;;;;;17.15;63.21;99382.78;5118873;27;20042;-62
2023/11/02 07:52:29;;;;;;;13.98;8.00;;;;;;;17.24;63.89;99397.56;5118750;28;20035;-63
2023/11/02 07:54:57;;;;;;;19.20;13.13;;;;;;;17.34;63.41;99397.09;5118677;27;20054;-64
2023/11/02 07:57:24;;;;;;;17.33;11.88;;;;;;;17.23;63.83;99387.06;5117841;27;20032;-63
2023/11/02 07:59:50;;;;;;;9.18;5.72;;;;;;;17.41;63.49;99389.03;5119032;27;20253;-63
2023/11/02 08:02:16;;;;;;;10.40;5.97;;;;;;;17.46;63.73;99400.75;5118312;27;20963;-64
2023/11/02 08:04:42;;;;;;;8.75;5.60;;;;;;;17.54;63.08;99403.16;5118303;27;20089;-63
2023/11/02 08:07:07;;;;;;;19.58;15.77;;;;;;;17.46;63.60;99390.03;5117653;27;20074;-64
2023/11/02 08:09:37;;;;;;;12.50;10.32;;;;;;;17.61;63.15;99388.91;5117324;27;20237;-63
2023/11/02 08:12:08;;;;;;;11.98;6.65;;;;;;;17.65;64.05;99384.78;5117861;27;20410;-63
2023/11/02 08:14:34;;;;;;;9.07;5.72;;;;;;;17.67;63.98;99375.50;5117772;27;20104;-63
2023/11/02 08:17:00;;;;;;;18.92;16.92;;;;;;;17.82;65.05;99368.03;5117466;27;20194;-63
2023/11/02 08:19:26;;;;;;;14.85;10.40;;;;;;;18.08;64.64;99368.84;5117720;27;20081;-63
2023/11/02 08:21:51;;;;;;;13.63;6.70;;;;;;;18.19;64.48;99368.94;5117490;27;20333;-63
2023/11/02 08:24:17;;;;;;;12.20;6.88;;;;;;;18.22;64.18;99373.03;5118001;27;20047;-64
2023/11/02 08:26:42;;;;;;;11.15;6.55;;;;;;;18.34;64.86;99373.13;5118725;27;20046;-63
2023/11/02 08:29:08;;;;;;;9.93;6.10;;;;;;;18.41;65.38;99372.03;5118702;28;20028;-63
2023/11/02 08:31:33;;;;;;;10.15;6.47;;;;;;;18.45;64.57;99377.75;5117998;27;20255;-63
2023/11/02 08:33:59;;;;;;;13.65;8.23;;;;;;;18.33;64.17;99376.84;5118176;27;20027;-63
2023/11/02 08:36:27;;;;;;;17.02;9.55;;;;;;;18.33;63.82;99382.22;5118981;28;20039;-63
2023/11/02 08:38:53;;;;;;;14.38;9.38;;;;;;;18.35;63.73;99372.91;5117611;27;20084;-63
2023/11/02 08:41:21;;;;;;;14.07;8.00;;;;;;;18.41;63.67;99371.19;5117553;28;20287;-62
2023/11/02 08:43:47;;;;;;;14.23;8.80;;;;;;;18.36;63.10;99363.81;5116618;28;20044;-63
2023/11/02 08:46:22;;;;;;;14.40;8.02;;;;;;;18.37;63.59;99360.09;5117379;28;20055;-62
2023/11/02 08:48:49;;;;;;;13.55;7.07;;;;;;;18.27;63.45;99359.78;5118141;28;20130;-62
2023/11/02 08:51:15;;;;;;;13.90;7.07;;;;;;;18.16;63.95;99355.16;5117994;28;20101;-63
2023/11/02 08:53:41;;;;;;;11.43;7.28;;;;;;;18.11;63.79;99352.31;5117424;28;20024;-62
2023/11/02 08:56:10;;;;;;;11.60;7.43;;;;;;;17.94;64.50;99340.53;5118368;28;20028;-63
2023/11/02 08:58:47;;;;;;;11.77;7.25;;;;;;;17.96;64.89;99341.94;5116711;28;20098;-63
2023/11/02 09:01:26;;;;;;;13.40;6.75;;;;;;;17.84;65.73;99344.50;5117946;28;20077;-64
2023/11/02 09:03:55;;;;;;;11.13;8.15;;;;;;;18.09;64.72;99331.09;5117152;28;20098;-65
2023/11/02 09:06:23;;;;;;;14.07;7.50;;;;;;;18.21;64.62;99325.84;5116928;28;20491;-62
2023/11/02 09:08:49;;;;;;;13.63;8.90;;;;;;;18.31;64.58;99318.09;5116950;28;20035;-62
2023/11/02 09:11:16;;;;;;;13.80;8.38;;;;;;;18.14;65.48;99317.88;5117142;28;20039;-62
2023/11/02 09:13:42;;;;;;;11.15;8.02;;;;;;;18.14;68.48;99319.72;5119842;27;20055;-62
2023/11/02 09:16:09;;;;;;;11.00;7.50;;;;;;;17.93;72.01;99312.09;5120723;27;20104;-62
2023/11/02 09:18:34;;;;;;;15.80;8.02;;;;;;;17.82;72.72;99308.28;5120198;27;20035;-63
2023/11/02 09:21:00;;;;;;;11.75;7.10;;;;;;;17.79;72.33;99306.03;5120778;27;20343;-63
2023/11/02 09:23:26;;;;;;;15.27;8.75;;;;;;;17.77;73.49;99305.44;5120380;27;20044;-62
2023/11/02 09:25:52;;;;;;;15.98;9.18;;;;;;;17.70;74.01;99294.78;5121889;27;20031;-62
2023/11/02 09:28:18;;;;;;;15.57;9.07;;;;;;;17.73;74.20;99293.53;5120838;27;20130;-62
2023/11/02 09:30:44;;;;;;;14.10;9.43;;;;;;;17.84;73.91;99296.31;5120742;27;20579;-62
2023/11/02 09:33:10;;;;;;;20.58;11.18;;;;;;;17.74;74.37;99287.13;5121147;27;20099;-62
2023/11/02 09:35:36;;;;;;;18.35;11.30;;;;;;;17.82;74.40;99279.63;5121719;27;20043;-63
2023/11/02 09:38:01;;;;;;;15.48;9.07;;;;;;;18.04;72.71;99282.72;5121263;27;20043;-64
2023/11/02 09:40:27;;;;;;;17.33;9.30;;;;;;;18.15;71.93;99286.53;5120832;27;20036;-64
2023/11/02 09:42:53;;;;;;;18.33;9.95;;;;;;;18.24;71.85;99277.16;5120458;27;20063;-64
2023/11/02 09:45:19;;;;;;;16.83;9.38;;;;;;;18.05;72.20;99278.19;5120588;27;20100;-63
2023/11/02 09:47:48;;;;;;;14.45;7.88;;;;;;;18.06;72.20;99277.16;5120436;27;20035;-63
2023/11/02 09:50:14;;;;;;;14.77;8.23;;;;;;;18.04;72.36;99266.66;5120894;27;20234;-63
2023/11/02 09:52:40;;;;;;;16.15;9.80;;;;;;;18.18;71.78;99256.59;5120913;27;20115;-63
2023/11/02 09:55:06;;;;;;;20.67;11.73;;;;;;;18.21;71.69;99245.44;5121701;27;20039;-62
2023/11/02 09:57:32;;;;;;;22.15;12.35;;;;;;;18.43;70.94;99259.22;5121190;27;20031;-63
2023/11/02 10:00:07;;;;;;;18.98;10.02;;;;;;;18.48;70.91;99256.66;5120893;27;20203;-65
2023/11/02 10:02:32;;;;;;;17.50;9.88;;;;;;;18.59;71.31;99255.09;5120507;27;20348;-62
2023/11/02 10:04:59;;;;;;;17.20;9.60;;;;;;;18.67;71.67;99255.63;5120652;27;20039;-62
2023/11/02 10:07:25;;;;;;;16.27;9.45;;;;;;;18.50;71.66;99243.88;5120896;27;20079;-62
2023/11/02 10:09:50;;;;;;;14.48;9.43;;;;;;;18.67;70.09;99255.63;5121009;27;20110;-63
2023/11/02 10:12:17;;;;;;;14.55;9.23;;;;;;;18.72;69.59;99247.72;5121084;27;20035;-62
2023/11/02 10:14:42;;;;;;;20.00;9.77;;;;;;;18.76;70.51;99246.25;5120503;27;20115;-64
2023/11/02 10:17:09;;;;;;;17.08;10.57;;;;;;;18.87;70.84;99238.47;5120473;27;20027;-63
2023/11/02 10:19:35;;;;;;;20.58;11.25;;;;;;;18.92;70.55;99243.97;5120211;27;20107;-63
2023/11/02 10:22:02;;;;;;;24.42;12.02;;;;;;;18.85;70.47;99233.34;5120240;27;20039;-63
2023/11/02 10:24:32;;;;;;;22.27;11.70;;;;;;;18.86;70.67;99226.94;5120017;27;20044;-65
2023/11/02 10:26:58;;;;;;;24.60;13.48;;;;;;;18.89;69.68;99226.47;5120542;27;20363;-63
2023/11/02 10:29:25;;;;;;;24.75;11.05;;;;;;;18.72;70.59;99223.59;5120655;27;20072;-63
2023/11/02 10:31:54;;;;;;;23.88;12.23;;;;;;;18.79;70.53;99218.16;5120576;27;20108;-64
2023/11/02 10:34:28;;;;;;;19.98;12.13;;;;;;;18.96;70.96;99215.66;5120254;27;20085;-63
2023/11/02 10:36:55;;;;;;;21.50;12.57;;;;;;;19.03;69.61;99211.81;5120115;27;20374;-63
2023/11/02 10:39:22;;;;;;;24.80;12.57;;;;;;;19.09;68.74;99213.59;5120163;27;20103;-63
2023/11/02 10:42:01;;;;;;;25.25;13.38;;;;;;;19.10;68.83;99207.16;5119709;27;20070;-63
2023/11/02 10:44:28;;;;;;;21.52;12.45;;;;;;;19.10;68.40;99201.81;5119483;27;20043;-63
2023/11/02 10:46:58;;;;;;;28.15;13.50;;;;;;;19.11;68.62;99191.88;5120696;27;20054;-63
2023/11/02 10:49:28;;;;;;;18.80;12.50;;;;;;;19.19;69.11;99191.56;5119869;27;20102;-64
2023/11/02 10:51:56;;;;;;;19.80;11.80;;;;;;;19.12;68.17;99186.28;5119560;27;20052;-63
2023/11/02 10:54:51;;;;;;;39.83;14.57;;;;;;;19.01;68.64;99187.09;5119643;27;20032;-63
2023/11/02 10:57:17;;;;;;;33.80;14.07;;;;;;;18.98;69.18;99181.38;5119624;27;20047;-64
2023/11/02 10:59:44;;;;;;;24.50;12.95;;;;;;;19.00;68.80;99176.59;5119807;27;20050;-63
2023/11/02 11:02:19;;;;;;;25.25;13.30;;;;;;;18.80;68.59;99169.66;5119539;27;20341;-63
2023/11/02 11:04:49;;;;;;;18.08;12.00;;;;;;;18.95;68.45;99157.69;5119685;27;20039;-64
2023/11/02 11:07:14;;;;;;;25.27;13.27;;;;;;;18.56;70.20;99156.34;5120292;27;20039;-63
2023/11/02 11:09:40;;;;;;;23.70;12.73;;;;;;;18.73;69.82;99149.34;5119322;27;20037;-63
2023/11/02 11:12:07;;;;;;;24.65;14.32;;;;;;;18.93;69.05;99152.53;5119409;27;20031;-63
2023/11/02 11:14:40;;;;;;;19.02;13.95;;;;;;;18.96;69.25;99146.72;5119505;27;20069;-63
2023/11/02 11:17:05;;;;;;;19.95;13.15;;;;;;;19.07;69.44;99145.09;5119355;27;20038;-63
2023/11/02 11:19:33;;;;;;;22.52;13.77;;;;;;;19.16;69.88;99145.56;5119698;27;20028;-63
2023/11/02 11:22:02;;;;;;;23.90;13.10;;;;;;;19.26;68.88;99137.75;5119220;27;20036;-63
2023/11/02 11:24:32;;;;;;;21.83;12.32;;;;;;;19.27;67.14;99142.09;5119376;27;20050;-64
2023/11/02 11:26:59;;;;;;;24.55;13.13;;;;;;;19.18;67.15;99140.78;5118522;27;20067;-63
2023/11/02 11:29:41;;;;;;;20.65;12.48;;;;;;;19.26;67.05;99141.25;5118207;27;20031;-63
2023/11/02 11:32:14;;;;;;;25.88;12.88;;;;;;;19.11;67.42;99133.66;5118885;27;20062;-63
2023/11/02 11:35:04;;;;;;;18.77;12.38;;;;;;;19.22;67.47;99129.34;5118072;27;20419;-62
2023/11/02 11:37:47;;;;;;;18.27;12.25;;;;;;;19.29;67.54;99132.75;5117294;27;20063;-62
2023/11/02 11:40:24;;;;;;;21.20;12.95;;;;;;;19.37;67.74;99126.22;5118091;27;20051;-63